createdAt,value
2022-09-28T12:27:26.616Z,50.8
2022-09-28T12:32:45.416Z,51.1
2022-09-28T12:38:03.597Z,50.7
2022-09-28T12:43:06.225Z,50.5
2022-09-28T12:48:24.100Z,51
2022-09-28T12:53:42.591Z,50.9
2022-09-28T12:59:01.380Z,51.5
2022-09-28T13:04:19.256Z,51.4
2022-09-28T13:09:37.756Z,50.6
2022-09-28T13:14:56.270Z,50.6
2022-09-28T13:20:14.732Z,50.3
2022-09-28T13:25:33.484Z,51.2
2022-09-28T13:30:52.117Z,50.5
2022-09-28T13:36:10.313Z,49.3
2022-09-28T13:41:28.771Z,47.9
2022-09-28T13:46:47.626Z,47.8
2022-09-28T13:52:05.813Z,47.3
2022-09-28T13:57:24.583Z,46.1
2022-09-28T14:02:43.130Z,46.6
2022-09-28T14:08:01.617Z,47
2022-09-28T14:13:08.878Z,46.8
2022-09-28T14:18:27.664Z,46.5
2022-09-28T14:23:45.858Z,45.1
2022-09-28T14:29:10.524Z,45.3
2022-09-28T14:34:28.739Z,45.8
2022-09-28T14:39:47.201Z,45.8
2022-09-28T14:44:50.060Z,46.3
2022-09-28T14:50:15.142Z,45.9
2022-09-28T14:55:33.420Z,45.2
2022-09-28T15:00:52.093Z,45.8
2022-09-28T15:06:10.603Z,45.5
2022-09-28T15:11:29.054Z,45.3
2022-09-28T15:16:47.822Z,45.3
2022-09-28T15:22:06.333Z,42.9
2022-09-28T15:27:25.058Z,43.3
2022-09-28T15:32:28.202Z,43.2
2022-09-28T15:37:47.339Z,42.6
2022-09-28T15:43:05.815Z,41.9
2022-09-28T15:48:24.273Z,41.6
2022-09-28T15:53:42.191Z,41.3
2022-09-28T15:59:00.648Z,41.3
2022-09-28T16:04:19.585Z,41.5
2022-09-28T16:09:41.539Z,41.6
2022-09-28T16:14:59.988Z,43
2022-09-28T16:20:18.193Z,43.2
2022-09-28T16:25:36.436Z,43.4
2022-09-28T16:30:54.801Z,43.8
2022-09-28T16:36:12.978Z,44
2022-09-28T16:41:31.525Z,43.4
2022-09-28T16:46:50.375Z,43.4
2022-09-28T16:52:09.101Z,44.2
2022-09-28T16:57:27.747Z,43.9
2022-09-28T17:02:47.946Z,45
2022-09-28T17:08:06.687Z,45.1
2022-09-28T17:13:24.919Z,43.7
2022-09-28T17:18:43.654Z,44.4
2022-09-28T17:24:02.428Z,45.1
2022-09-28T17:29:21.079Z,45.8
2022-09-28T17:34:23.621Z,46.7
2022-09-28T17:39:42.086Z,46.9
2022-09-28T17:45:00.626Z,47.5
2022-09-28T17:50:18.791Z,47.4
2022-09-28T17:55:37.255Z,47.4
2022-09-28T18:00:55.829Z,47.8
2022-09-28T18:06:13.742Z,48.5
2022-09-28T18:11:32.203Z,48.5
2022-09-28T18:16:50.671Z,48.2
2022-09-28T18:22:09.112Z,47.9
2022-09-28T18:27:27.307Z,48.2
2022-09-28T18:32:45.515Z,48
2022-09-28T18:38:03.964Z,47.5
2022-09-28T18:43:22.437Z,48.5
2022-09-28T18:48:40.927Z,48.3
2022-09-28T18:53:59.648Z,47.7
2022-09-28T18:59:18.503Z,48.3
2022-09-28T19:04:37.060Z,48
2022-09-28T19:09:55.509Z,48.6
2022-09-28T19:15:14.266Z,48.4
2022-09-28T19:20:32.493Z,48.3
2022-09-28T19:25:50.682Z,48.3
2022-09-28T19:31:08.879Z,49.1
2022-09-28T19:36:11.755Z,49.2
2022-09-28T19:41:30.216Z,49.9
2022-09-28T19:46:48.700Z,49.9
2022-09-28T19:52:17.374Z,50.4
2022-09-28T19:57:35.662Z,50.5
2022-09-28T20:02:53.810Z,50.4
2022-09-28T20:08:12.692Z,49.8
2022-09-28T20:13:31.155Z,49.1
2022-09-28T20:18:49.641Z,50
2022-09-28T20:24:07.885Z,51.5
2022-09-28T20:29:26.064Z,49.4
2022-09-28T20:34:43.999Z,49.9
2022-09-28T20:40:02.807Z,50.1
2022-09-28T20:45:21.528Z,49.9
2022-09-28T20:50:39.740Z,50.6
2022-09-28T20:55:58.529Z,51.1
2022-09-28T21:01:20.191Z,51.4
2022-09-28T21:06:38.681Z,50.5
2022-09-28T21:11:57.454Z,52
2022-09-28T21:17:15.953Z,51.3
2022-09-28T21:22:34.436Z,51.8
2022-09-28T21:27:52.644Z,52.1
2022-09-28T21:33:11.362Z,52.1
2022-09-28T21:38:30.126Z,51.4
2022-09-28T21:43:48.384Z,51.6
2022-09-28T21:49:06.836Z,51.3
2022-09-28T21:54:25.599Z,51.3
2022-09-28T21:59:44.106Z,51.2
2022-09-28T22:05:02.326Z,51.5
2022-09-28T22:10:20.799Z,51.4
2022-09-28T22:15:39.467Z,52.2
2022-09-28T22:20:57.739Z,52.2
2022-09-28T22:26:15.670Z,52.3
2022-09-28T22:31:34.500Z,51.8
2022-09-28T22:36:53.031Z,52.3
2022-09-28T22:42:11.788Z,51.5
2022-09-28T22:47:30.578Z,51.9
2022-09-28T22:52:48.755Z,51.6
2022-09-28T22:58:07.267Z,52.7
2022-09-28T23:03:26.047Z,52.7
2022-09-28T23:08:44.515Z,53.2
2022-09-28T23:14:03.008Z,52.7
2022-09-28T23:19:21.804Z,52.7
2022-09-28T23:24:40.264Z,52.8
2022-09-28T23:29:58.470Z,52.9
2022-09-28T23:35:16.970Z,53.1
2022-09-28T23:40:35.607Z,53.2
2022-09-28T23:45:54.108Z,52.2
2022-09-28T23:51:12.891Z,52.3
2022-09-28T23:56:31.347Z,52.9
